Alexandria, Ohio
Current Conditions -  °F | °C
As of 10:54 AM on Tuesday 21 Oct 2014 (Local Time) from KVTA Reporting Station
Overcast Overcast  
Wind Chill: 50°   Ceiling: 1200
Heat Index: 50°   Visibility: 10mi
Dew Point: 46°   Wind: 12mph
Humidity: 86%   Direction: 320°NW
Pressure: 29.95"   Gusts: 16mph
Location:  40.09°N, 82.61°W
Report Text: KVTA 211454Z AUTO 32010G14KT 10SM OVC012 10/08 A2995 RMK AO2 SLP143 60001 T01000078 51018
Loading
Personal Weather Stations






























Interactive Weather Map
Tropical Storm Tracking
New forecast layout! Learn more

10-Day Weather Forecast

Advertisements
Track Severe Weather on mobile